Time;durP1;ratioP1;P1;durP2;ratioP2;P2;SDS_P1;SDS_P2;PMS_P1;PMS_P2;Temp;Humidity;BMP_temperature;BMP_pressure;BME280_temperature;BME280_humidity;BME280_pressure;Samples;Min_cycle;Max_cycle;Signal;HPM_P1;HPM_P2
2021/08/10 00:00:09;;;;;;;3.80;1.60;;;;;;;;;;5025671;28;20052;-63
2021/08/10 00:02:38;;;;;;;3.70;1.83;;;;;;;;;;5027192;28;20501;-63
2021/08/10 00:05:07;;;;;;;2.83;1.83;;;;;;;;;;5029913;28;20124;-62
2021/08/10 00:07:35;;;;;;;2.78;1.50;;;;;;;;;;5030107;28;20153;-61
2021/08/10 00:10:04;;;;;;;2.70;1.70;;;;;;;;;;5030595;28;20053;-64
2021/08/10 00:12:32;;;;;;;3.53;1.92;;;;;;;;;;5030880;28;20076;-61
2021/08/10 00:15:01;;;;;;;2.80;1.73;;;;;;;;;;5029551;28;20045;-62
2021/08/10 00:17:30;;;;;;;3.38;1.60;;;;;;;;;;5030240;28;20103;-62
2021/08/10 00:19:59;;;;;;;2.65;1.60;;;;;;;;;;5029335;28;20049;-62
2021/08/10 00:22:27;;;;;;;3.08;1.70;;;;;;;;;;5029795;28;20152;-62
2021/08/10 00:24:55;;;;;;;3.10;1.60;;;;;;;;;;5029740;28;20136;-62
2021/08/10 00:27:23;;;;;;;2.63;1.58;;;;;;;;;;5028605;28;20116;-61
2021/08/10 00:29:52;;;;;;;4.03;2.25;;;;;;;;;;5033692;28;20049;-62
2021/08/10 00:32:20;;;;;;;2.00;1.60;;;;;;;;;;5033136;28;20057;-63
2021/08/10 00:34:50;;;;;;;2.60;1.60;;;;;;;;;;5032725;28;20072;-63
2021/08/10 00:37:19;;;;;;;3.80;2.05;;;;;;;;;;5029250;28;20136;-62
2021/08/10 00:39:47;;;;;;;3.00;1.90;;;;;;;;;;5029051;28;20129;-62
2021/08/10 00:42:15;;;;;;;3.22;1.77;;;;;;;;;;5033940;28;20144;-64
2021/08/10 00:44:44;;;;;;;2.75;1.83;;;;;;;;;;5033088;28;20072;-62
2021/08/10 00:47:12;;;;;;;3.63;2.00;;;;;;;;;;5031149;28;20049;-63
2021/08/10 00:49:40;;;;;;;3.25;1.98;;;;;;;;;;5031197;28;20045;-62
2021/08/10 00:52:10;;;;;;;2.78;1.40;;;;;;;;;;5026392;28;20065;-64
2021/08/10 00:54:38;;;;;;;4.43;2.08;;;;;;;;;;5026228;28;20053;-65
2021/08/10 00:57:07;;;;;;;3.83;2.03;;;;;;;;;;5026298;28;20045;-62
2021/08/10 00:59:35;;;;;;;3.03;1.73;;;;;;;;;;5022601;28;20138;-65
2021/08/10 01:02:04;;;;;;;2.40;1.38;;;;;;;;;;5034567;28;20052;-61
2021/08/10 01:04:33;;;;;;;2.63;1.77;;;;;;;;;;5053697;23;20037;-72
2021/08/10 01:07:05;;;;;;;3.08;1.90;;;;;;;;;;5050666;28;20124;-74
2021/08/10 01:09:41;;;;;;;3.13;2.00;;;;;;;;;;5052081;28;20049;-72
2021/08/10 01:12:11;;;;;;;4.68;1.63;;;;;;;;;;5053038;28;20049;-73
2021/08/10 01:14:42;;;;;;;2.72;1.80;;;;;;;;;;5049148;28;20045;-73
2021/08/10 01:17:12;;;;;;;3.78;1.92;;;;;;;;;;5045727;28;20049;-73
2021/08/10 01:19:52;;;;;;;3.00;2.00;;;;;;;;;;5039561;28;20132;-72
2021/08/10 01:22:22;;;;;;;2.85;1.70;;;;;;;;;;5050353;28;20053;-73
2021/08/10 01:24:55;;;;;;;3.20;1.85;;;;;;;;;;5050902;28;20055;-73
2021/08/10 01:27:34;;;;;;;5.50;2.03;;;;;;;;;;5042004;28;20046;-74
2021/08/10 01:30:04;;;;;;;5.10;2.00;;;;;;;;;;5053269;28;20118;-72
2021/08/10 01:32:35;;;;;;;2.10;1.70;;;;;;;;;;5053397;28;20052;-73
2021/08/10 01:35:03;;;;;;;2.88;1.52;;;;;;;;;;5051924;28;20135;-72
2021/08/10 01:37:32;;;;;;;4.28;1.88;;;;;;;;;;5043825;28;20378;-72
2021/08/10 01:40:02;;;;;;;3.22;2.22;;;;;;;;;;5051310;28;20049;-73
2021/08/10 01:42:32;;;;;;;4.65;2.13;;;;;;;;;;5052511;28;20049;-73
2021/08/10 01:45:01;;;;;;;2.67;1.70;;;;;;;;;;5052349;28;20419;-74
2021/08/10 01:47:30;;;;;;;4.90;1.75;;;;;;;;;;5039695;28;20045;-73
2021/08/10 01:50:01;;;;;;;3.55;1.70;;;;;;;;;;5052840;28;20040;-73
2021/08/10 01:52:30;;;;;;;2.00;1.50;;;;;;;;;;5051780;28;20144;-73
2021/08/10 01:54:59;;;;;;;5.50;2.10;;;;;;;;;;5040675;28;20556;-73
2021/08/10 01:57:27;;;;;;;3.08;1.67;;;;;;;;;;5032037;28;20046;-73
2021/08/10 01:59:56;;;;;;;5.85;1.85;;;;;;;;;;5032360;28;20375;-73
2021/08/10 02:02:24;;;;;;;2.55;1.92;;;;;;;;;;5031793;28;20045;-73
2021/08/10 02:04:53;;;;;;;2.22;1.58;;;;;;;;;;5030528;28;20464;-72
2021/08/10 02:07:24;;;;;;;2.97;1.75;;;;;;;;;;5028856;28;20050;-73
2021/08/10 02:09:52;;;;;;;3.30;1.80;;;;;;;;;;5015203;28;20046;-73
2021/08/10 02:12:21;;;;;;;4.38;1.98;;;;;;;;;;5019586;28;20049;-72
2021/08/10 02:14:50;;;;;;;2.97;1.80;;;;;;;;;;5023628;28;20498;-73
2021/08/10 02:17:18;;;;;;;3.25;2.20;;;;;;;;;;5025630;28;20060;-74
2021/08/10 02:19:47;;;;;;;4.28;2.00;;;;;;;;;;5028387;28;20489;-73
2021/08/10 02:22:16;;;;;;;5.63;1.80;;;;;;;;;;5019558;28;20074;-73
2021/08/10 02:24:49;;;;;;;8.23;2.08;;;;;;;;;;5027864;28;20552;-73
2021/08/10 02:27:19;;;;;;;3.38;2.00;;;;;;;;;;5027854;28;20493;-74
2021/08/10 02:29:49;;;;;;;3.55;2.00;;;;;;;;;;5021320;28;20053;-74
2021/08/10 02:32:19;;;;;;;3.33;2.00;;;;;;;;;;5027961;28;20053;-76
2021/08/10 02:34:47;;;;;;;2.72;1.88;;;;;;;;;;5029282;28;20049;-75
2021/08/10 02:37:17;;;;;;;2.40;1.90;;;;;;;;;;5023427;28;20045;-74
2021/08/10 02:39:48;;;;;;;5.40;2.25;;;;;;;;;;5033224;28;20041;-76
2021/08/10 02:42:18;;;;;;;5.30;2.05;;;;;;;;;;5025783;28;20049;-73
2021/08/10 02:44:47;;;;;;;3.88;1.90;;;;;;;;;;5018198;28;20133;-75
2021/08/10 02:47:15;;;;;;;3.90;1.90;;;;;;;;;;5018305;28;20501;-73
2021/08/10 02:49:43;;;;;;;2.88;1.70;;;;;;;;;;5029270;28;20054;-74
2021/08/10 02:52:12;;;;;;;3.75;1.67;;;;;;;;;;5027018;28;20057;-75
2021/08/10 02:54:41;;;;;;;3.63;2.15;;;;;;;;;;5031536;28;20489;-75
2021/08/10 02:57:13;;;;;;;3.35;1.85;;;;;;;;;;5033500;28;20065;-74
2021/08/10 02:59:43;;;;;;;3.15;2.00;;;;;;;;;;5031250;28;20551;-74
2021/08/10 03:02:13;;;;;;;3.40;2.00;;;;;;;;;;5019362;28;20045;-74
2021/08/10 03:04:45;;;;;;;4.00;2.03;;;;;;;;;;5031499;28;20045;-74
2021/08/10 03:07:14;;;;;;;5.05;1.80;;;;;;;;;;5026624;28;20493;-75
2021/08/10 03:09:42;;;;;;;2.38;1.75;;;;;;;;;;5013990;28;20080;-73
2021/08/10 03:12:13;;;;;;;4.28;1.80;;;;;;;;;;5029343;28;20046;-73
2021/08/10 03:14:41;;;;;;;3.28;1.90;;;;;;;;;;5015539;28;20055;-75
2021/08/10 03:17:10;;;;;;;1.83;1.50;;;;;;;;;;5014602;28;20100;-74
2021/08/10 03:19:40;;;;;;;5.53;1.60;;;;;;;;;;5023737;28;20049;-76
2021/08/10 03:22:09;;;;;;;4.45;1.70;;;;;;;;;;5021860;28;20409;-77
2021/08/10 03:24:37;;;;;;;6.88;1.80;;;;;;;;;;5030058;28;20572;-74
2021/08/10 03:27:07;;;;;;;2.42;1.58;;;;;;;;;;5026989;28;20049;-75
2021/08/10 03:29:41;;;;;;;2.67;1.83;;;;;;;;;;5031117;28;20497;-74
2021/08/10 03:32:09;;;;;;;2.70;1.90;;;;;;;;;;5025932;28;20477;-74
2021/08/10 03:34:38;;;;;;;2.83;1.90;;;;;;;;;;5030804;28;20033;-76
2021/08/10 03:37:06;;;;;;;3.40;1.70;;;;;;;;;;5029827;28;20061;-73
2021/08/10 03:39:35;;;;;;;2.75;1.95;;;;;;;;;;5031589;28;20038;-73
2021/08/10 03:42:03;;;;;;;2.92;1.85;;;;;;;;;;5017689;28;20046;-75
2021/08/10 03:44:32;;;;;;;2.53;1.70;;;;;;;;;;5024944;28;20490;-74
2021/08/10 03:47:02;;;;;;;4.15;1.67;;;;;;;;;;5030847;28;20045;-74
2021/08/10 03:49:31;;;;;;;2.80;1.70;;;;;;;;;;5030634;28;20551;-73
2021/08/10 03:52:00;;;;;;;2.40;1.90;;;;;;;;;;5020371;28;20050;-74
2021/08/10 03:54:28;;;;;;;2.65;1.50;;;;;;;;;;5026786;28;20600;-74
2021/08/10 03:56:58;;;;;;;3.38;1.80;;;;;;;;;;5031218;28;20041;-76
2021/08/10 03:59:29;;;;;;;3.28;2.10;;;;;;;;;;5024818;28;20046;-74
2021/08/10 04:01:57;;;;;;;4.00;2.03;;;;;;;;;;5022375;28;20486;-73
2021/08/10 04:04:27;;;;;;;3.00;1.67;;;;;;;;;;5026161;28;20053;-74
2021/08/10 04:06:55;;;;;;;2.40;1.67;;;;;;;;;;5011380;28;20137;-75
2021/08/10 04:09:24;;;;;;;4.00;1.83;;;;;;;;;;5022167;28;20042;-74
2021/08/10 04:11:52;;;;;;;8.60;1.90;;;;;;;;;;5018586;28;20057;-74
2021/08/10 04:14:21;;;;;;;3.63;2.20;;;;;;;;;;5030160;28;20562;-75
2021/08/10 04:16:52;;;;;;;2.85;1.77;;;;;;;;;;5030537;28;20045;-76
2021/08/10 04:19:21;;;;;;;3.35;2.10;;;;;;;;;;5030638;28;20058;-75
2021/08/10 04:21:51;;;;;;;3.85;2.05;;;;;;;;;;5030581;28;20405;-74
2021/08/10 04:24:19;;;;;;;2.15;1.77;;;;;;;;;;5029981;28;20044;-75
2021/08/10 04:26:47;;;;;;;4.40;2.22;;;;;;;;;;5031028;28;20052;-75
2021/08/10 04:29:15;;;;;;;3.33;1.58;;;;;;;;;;5028346;28;20412;-74
2021/08/10 04:31:44;;;;;;;3.55;1.95;;;;;;;;;;5030468;28;20053;-74
2021/08/10 04:34:12;;;;;;;3.08;1.70;;;;;;;;;;5022577;28;20050;-75
2021/08/10 04:36:40;;;;;;;3.28;1.90;;;;;;;;;;5022572;28;20056;-75
2021/08/10 04:39:10;;;;;;;3.25;1.95;;;;;;;;;;5030353;28;20136;-75
2021/08/10 04:41:38;;;;;;;4.07;1.70;;;;;;;;;;5025489;28;20046;-75
2021/08/10 04:44:09;;;;;;;3.10;1.77;;;;;;;;;;5022781;28;20046;-75
2021/08/10 04:46:38;;;;;;;2.58;1.60;;;;;;;;;;5026065;28;20045;-75
2021/08/10 04:49:06;;;;;;;2.70;1.70;;;;;;;;;;5024435;28;20279;-74
2021/08/10 04:51:34;;;;;;;2.88;1.60;;;;;;;;;;5030761;28;20076;-74
2021/08/10 04:54:03;;;;;;;3.40;1.40;;;;;;;;;;5029353;28;20053;-75
2021/08/10 04:56:32;;;;;;;4.13;1.80;;;;;;;;;;5021498;28;20056;-75
2021/08/10 04:59:00;;;;;;;4.50;1.90;;;;;;;;;;5020694;28;20049;-74
2021/08/10 05:01:29;;;;;;;5.78;2.20;;;;;;;;;;5029044;28;20496;-75
2021/08/10 05:03:57;;;;;;;6.88;2.50;;;;;;;;;;5028795;28;20547;-75
2021/08/10 05:06:26;;;;;;;6.28;2.20;;;;;;;;;;5032009;28;20132;-76
2021/08/10 05:08:54;;;;;;;3.53;1.85;;;;;;;;;;5026520;28;20055;-75
2021/08/10 05:11:23;;;;;;;5.85;2.30;;;;;;;;;;5035847;28;20496;-75
2021/08/10 05:13:53;;;;;;;3.33;1.65;;;;;;;;;;5028117;28;20132;-76
2021/08/10 05:16:21;;;;;;;4.55;1.88;;;;;;;;;;5032069;28;20045;-76
2021/08/10 05:18:49;;;;;;;3.45;2.00;;;;;;;;;;5028843;28;20073;-73
2021/08/10 05:21:19;;;;;;;3.20;1.60;;;;;;;;;;5032609;28;20071;-73
2021/08/10 05:23:48;;;;;;;3.45;1.75;;;;;;;;;;5041797;28;20045;-74
2021/08/10 05:26:17;;;;;;;3.97;1.90;;;;;;;;;;5032470;28;20132;-76
2021/08/10 05:28:47;;;;;;;4.72;2.10;;;;;;;;;;5030742;28;20056;-76
2021/08/10 05:31:17;;;;;;;3.17;1.92;;;;;;;;;;5038339;28;20500;-75
2021/08/10 05:33:45;;;;;;;3.85;1.90;;;;;;;;;;5032411;28;20050;-75
2021/08/10 05:36:14;;;;;;;7.13;1.92;;;;;;;;;;5026518;28;20137;-76
2021/08/10 05:38:45;;;;;;;5.50;1.83;;;;;;;;;;5029878;28;20049;-75
2021/08/10 05:41:13;;;;;;;2.83;1.90;;;;;;;;;;5030919;28;20048;-75
2021/08/10 05:43:41;;;;;;;4.10;2.05;;;;;;;;;;5031106;28;20433;-75
2021/08/10 05:46:09;;;;;;;5.55;2.20;;;;;;;;;;5022242;28;20140;-78
2021/08/10 05:48:39;;;;;;;4.35;2.38;;;;;;;;;;5038882;28;20049;-76
2021/08/10 05:51:08;;;;;;;3.28;1.95;;;;;;;;;;5049432;28;20076;-76
2021/08/10 05:53:36;;;;;;;5.70;2.08;;;;;;;;;;5035394;28;20057;-75
2021/08/10 05:56:05;;;;;;;3.30;2.13;;;;;;;;;;5048531;28;20144;-75
2021/08/10 05:58:33;;;;;;;3.40;2.38;;;;;;;;;;5045762;28;20037;-75
2021/08/10 06:01:04;;;;;;;3.30;1.95;;;;;;;;;;5036649;28;20049;-76
2021/08/10 06:03:33;;;;;;;4.18;2.22;;;;;;;;;;5050216;28;20075;-75
2021/08/10 06:06:03;;;;;;;5.13;2.03;;;;;;;;;;5029982;28;20100;-75
2021/08/10 06:08:31;;;;;;;6.15;2.08;;;;;;;;;;5035494;28;20045;-75
2021/08/10 06:10:59;;;;;;;4.00;2.25;;;;;;;;;;5032829;28;20136;-75
2021/08/10 06:13:28;;;;;;;3.20;1.83;;;;;;;;;;5031348;28;20584;-76
2021/08/10 06:15:56;;;;;;;5.00;2.35;;;;;;;;;;5024737;28;20053;-74
2021/08/10 06:18:24;;;;;;;5.28;2.40;;;;;;;;;;5035853;28;20132;-75
2021/08/10 06:20:52;;;;;;;5.75;2.58;;;;;;;;;;5034263;28;20486;-75
2021/08/10 06:23:22;;;;;;;7.57;2.35;;;;;;;;;;5021173;28;20050;-74
2021/08/10 06:25:51;;;;;;;4.88;2.45;;;;;;;;;;5028000;28;20073;-74
2021/08/10 06:28:19;;;;;;;4.57;2.50;;;;;;;;;;5035205;28;20059;-74
2021/08/10 06:30:47;;;;;;;4.95;2.55;;;;;;;;;;5035381;28;20128;-74
2021/08/10 06:33:16;;;;;;;6.00;2.80;;;;;;;;;;5034235;28;20144;-74
2021/08/10 06:35:44;;;;;;;6.40;3.03;;;;;;;;;;5034607;28;20495;-74
2021/08/10 06:38:13;;;;;;;4.25;2.50;;;;;;;;;;5043885;28;20103;-76
2021/08/10 06:40:42;;;;;;;8.18;2.53;;;;;;;;;;5027997;28;20124;-73
2021/08/10 06:43:10;;;;;;;6.35;2.58;;;;;;;;;;5027618;28;20047;-74
2021/08/10 06:45:39;;;;;;;6.63;2.80;;;;;;;;;;5045401;28;20048;-77
2021/08/10 06:48:08;;;;;;;4.10;2.70;;;;;;;;;;5042160;28;20045;-75
2021/08/10 06:50:37;;;;;;;5.68;2.67;;;;;;;;;;5032011;28;20132;-75
2021/08/10 06:53:05;;;;;;;6.15;2.75;;;;;;;;;;5025302;28;20073;-73
2021/08/10 06:55:34;;;;;;;6.38;2.25;;;;;;;;;;5028138;28;20489;-76
2021/08/10 06:58:04;;;;;;;5.50;2.50;;;;;;;;;;5026460;28;20053;-73
2021/08/10 07:00:32;;;;;;;6.72;2.63;;;;;;;;;;5028767;28;20160;-73
2021/08/10 07:03:00;;;;;;;6.03;2.40;;;;;;;;;;5026911;28;20044;-73
2021/08/10 07:05:29;;;;;;;7.47;2.97;;;;;;;;;;5039028;28;20063;-73
2021/08/10 07:07:58;;;;;;;3.33;2.10;;;;;;;;;;5033550;28;20107;-73
2021/08/10 07:10:26;;;;;;;3.67;2.25;;;;;;;;;;5036160;28;20069;-74
2021/08/10 07:12:54;;;;;;;4.93;2.28;;;;;;;;;;5019004;28;20064;-73
2021/08/10 07:15:25;;;;;;;3.00;1.70;;;;;;;;;;5023362;28;20050;-73
2021/08/10 07:17:53;;;;;;;5.72;2.45;;;;;;;;;;5043550;28;20149;-73
2021/08/10 07:20:22;;;;;;;3.13;2.00;;;;;;;;;;5032992;28;20553;-75
2021/08/10 07:22:50;;;;;;;3.88;2.45;;;;;;;;;;5025534;28;20103;-74
2021/08/10 07:25:20;;;;;;;4.63;2.67;;;;;;;;;;5031077;28;20149;-73
2021/08/10 07:27:49;;;;;;;3.72;2.50;;;;;;;;;;5028928;28;20041;-74
2021/08/10 07:30:17;;;;;;;4.80;2.42;;;;;;;;;;5013245;28;20144;-74
2021/08/10 07:32:47;;;;;;;5.28;2.53;;;;;;;;;;5027536;28;20074;-73
2021/08/10 07:35:16;;;;;;;4.78;2.38;;;;;;;;;;5041983;28;20049;-72
2021/08/10 07:37:44;;;;;;;4.00;1.85;;;;;;;;;;5024970;28;20501;-71
2021/08/10 07:40:14;;;;;;;6.00;2.10;;;;;;;;;;5030330;28;20046;-75
2021/08/10 07:42:42;;;;;;;3.08;1.80;;;;;;;;;;5028250;28;20093;-77
2021/08/10 07:45:11;;;;;;;5.28;2.28;;;;;;;;;;5034408;28;20444;-74
2021/08/10 07:47:40;;;;;;;4.70;2.13;;;;;;;;;;5023850;28;20046;-73
2021/08/10 07:50:10;;;;;;;3.10;1.70;;;;;;;;;;5032936;28;20092;-74
2021/08/10 07:52:39;;;;;;;4.63;2.30;;;;;;;;;;5031388;28;20125;-74
2021/08/10 07:55:08;;;;;;;4.18;2.30;;;;;;;;;;5043928;28;20148;-73
2021/08/10 07:57:36;;;;;;;3.42;2.03;;;;;;;;;;5024838;28;20132;-76
2021/08/10 08:00:05;;;;;;;3.47;2.13;;;;;;;;;;5026980;28;20545;-74
2021/08/10 08:02:33;;;;;;;3.20;1.95;;;;;;;;;;5032388;28;20104;-73
2021/08/10 08:05:02;;;;;;;4.40;1.83;;;;;;;;;;5029228;28;20065;-74
2021/08/10 08:07:32;;;;;;;5.28;1.75;;;;;;;;;;5025578;28;20058;-72
2021/08/10 08:10:00;;;;;;;3.03;1.65;;;;;;;;;;5038134;28;20050;-73
2021/08/10 08:12:29;;;;;;;4.18;1.60;;;;;;;;;;5034469;28;20049;-73
2021/08/10 08:14:58;;;;;;;3.13;1.70;;;;;;;;;;5030624;28;20092;-73
2021/08/10 08:17:26;;;;;;;3.88;1.90;;;;;;;;;;5029454;28;20504;-73
2021/08/10 08:20:15;;;;;;;3.03;2.00;;;;;;;;;;5038036;28;20126;-74
2021/08/10 08:22:45;;;;;;;3.83;1.95;;;;;;;;;;5038965;28;20041;-73
2021/08/10 08:25:14;;;;;;;5.07;2.03;;;;;;;;;;5030044;28;20053;-73
2021/08/10 08:27:42;;;;;;;3.58;1.80;;;;;;;;;;5035849;28;20048;-73
2021/08/10 08:30:11;;;;;;;2.20;1.27;;;;;;;;;;5032509;28;20556;-73
2021/08/10 08:32:39;;;;;;;4.00;1.88;;;;;;;;;;5029873;28;20426;-74
2021/08/10 08:35:08;;;;;;;7.68;1.70;;;;;;;;;;5023484;28;20475;-72
2021/08/10 08:37:37;;;;;;;2.53;1.63;;;;;;;;;;5027329;28;20105;-73
2021/08/10 08:40:08;;;;;;;3.95;1.83;;;;;;;;;;5029338;28;20564;-73
2021/08/10 08:42:36;;;;;;;5.80;1.70;;;;;;;;;;5038160;28;20080;-71
2021/08/10 08:45:08;;;;;;;2.47;1.60;;;;;;;;;;5032092;28;20447;-71
2021/08/10 08:47:36;;;;;;;6.22;2.10;;;;;;;;;;5027572;28;20053;-71
2021/08/10 08:50:05;;;;;;;2.47;1.33;;;;;;;;;;5044431;28;20048;-71
2021/08/10 08:52:34;;;;;;;3.67;1.60;;;;;;;;;;5044395;28;20079;-71
2021/08/10 08:55:02;;;;;;;3.25;1.73;;;;;;;;;;5051883;28;20041;-71
2021/08/10 08:57:32;;;;;;;3.85;1.77;;;;;;;;;;5034860;28;20496;-71
2021/08/10 09:00:00;;;;;;;3.72;1.48;;;;;;;;;;5043848;28;20143;-71
2021/08/10 09:02:32;;;;;;;3.17;1.52;;;;;;;;;;5048603;28;20130;-71
2021/08/10 09:05:00;;;;;;;4.97;1.88;;;;;;;;;;5050714;28;20053;-71
2021/08/10 09:07:29;;;;;;;2.50;1.52;;;;;;;;;;5050819;28;20061;-70
2021/08/10 09:10:05;;;;;;;4.45;1.60;;;;;;;;;;5049057;28;20080;-71
2021/08/10 09:12:43;;;;;;;2.88;1.55;;;;;;;;;;5049981;28;20071;-71
2021/08/10 09:15:12;;;;;;;3.70;1.70;;;;;;;;;;5052357;28;20045;-71
2021/08/10 09:17:47;;;;;;;3.00;1.90;;;;;;;;;;5029188;28;20381;-71
2021/08/10 09:20:20;;;;;;;4.35;1.55;;;;;;;;;;5051815;28;20124;-71
2021/08/10 09:22:52;;;;;;;4.50;1.70;;;;;;;;;;5049086;28;20548;-71
2021/08/10 09:25:21;;;;;;;4.05;1.60;;;;;;;;;;5033474;28;20379;-71
2021/08/10 09:27:50;;;;;;;4.20;2.00;;;;;;;;;;5045947;28;20128;-71
2021/08/10 09:30:26;;;;;;;7.53;1.67;;;;;;;;;;5046073;28;20053;-71
2021/08/10 09:32:56;;;;;;;4.03;1.83;;;;;;;;;;5053550;28;20046;-70
2021/08/10 09:35:26;;;;;;;4.57;1.50;;;;;;;;;;5040169;28;20140;-72
2021/08/10 09:38:07;;;;;;;3.10;1.50;;;;;;;;;;5013919;28;20104;-71
2021/08/10 09:40:36;;;;;;;3.85;1.85;;;;;;;;;;5039434;28;20052;-71
2021/08/10 09:43:24;;;;;;;3.75;1.75;;;;;;;;;;5050353;28;20547;-70
2021/08/10 09:46:14;;;;;;;2.45;1.60;;;;;;;;;;5047192;28;20083;-70
2021/08/10 09:48:53;;;;;;;4.55;1.98;;;;;;;;;;5039265;28;20132;-70
2021/08/10 09:51:23;;;;;;;2.65;1.70;;;;;;;;;;5041774;28;20054;-70
2021/08/10 09:53:55;;;;;;;5.65;1.52;;;;;;;;;;5032319;28;20058;-70
2021/08/10 09:56:38;;;;;;;3.00;1.65;;;;;;;;;;5037074;28;20140;-71
2021/08/10 09:59:07;;;;;;;7.18;1.70;;;;;;;;;;5051094;28;20057;-71
2021/08/10 10:01:36;;;;;;;3.28;1.88;;;;;;;;;;5040732;28;20481;-70
2021/08/10 10:04:13;;;;;;;4.60;1.73;;;;;;;;;;5025168;28;20057;-69
2021/08/10 10:06:42;;;;;;;2.80;1.88;;;;;;;;;;5032115;28;20042;-69
2021/08/10 10:09:12;;;;;;;3.10;1.63;;;;;;;;;;5033411;28;20056;-68
2021/08/10 10:11:41;;;;;;;2.90;1.65;;;;;;;;;;5043986;28;20395;-69
2021/08/10 10:14:11;;;;;;;5.10;2.03;;;;;;;;;;5026157;28;20046;-69
2021/08/10 10:16:41;;;;;;;4.05;1.80;;;;;;;;;;5031410;28;20049;-68
2021/08/10 10:19:10;;;;;;;5.15;1.83;;;;;;;;;;5038274;28;20054;-66
2021/08/10 10:21:42;;;;;;;3.20;1.58;;;;;;;;;;5029140;28;20042;-68
2021/08/10 10:24:11;;;;;;;3.63;1.90;;;;;;;;;;5025969;28;20076;-66
2021/08/10 10:26:41;;;;;;;3.85;1.77;;;;;;;;;;5033841;28;20060;-67
2021/08/10 10:29:11;;;;;;;3.22;1.90;;;;;;;;;;5027766;28;20128;-67
2021/08/10 10:31:39;;;;;;;3.20;1.55;;;;;;;;;;5044927;28;20048;-67
2021/08/10 10:34:08;;;;;;;2.55;1.70;;;;;;;;;;5044169;28;20045;-66
2021/08/10 10:36:37;;;;;;;2.45;1.42;;;;;;;;;;5018712;28;20054;-66
2021/08/10 10:39:08;;;;;;;3.75;1.70;;;;;;;;;;5026793;28;20049;-66
2021/08/10 10:41:37;;;;;;;3.70;1.55;;;;;;;;;;5032547;28;20045;-67
2021/08/10 10:44:07;;;;;;;2.42;1.60;;;;;;;;;;5025886;28;20049;-67
2021/08/10 10:46:36;;;;;;;3.17;1.52;;;;;;;;;;5030931;28;20063;-67
2021/08/10 10:49:05;;;;;;;3.92;2.00;;;;;;;;;;5042166;28;20135;-67
2021/08/10 10:51:34;;;;;;;2.80;1.60;;;;;;;;;;5028137;28;20525;-66
2021/08/10 10:54:24;;;;;;;4.18;1.60;;;;;;;;;;5025999;28;20042;-67
2021/08/10 10:56:52;;;;;;;3.58;1.80;;;;;;;;;;5035071;28;20067;-67
2021/08/10 10:59:23;;;;;;;3.05;1.50;;;;;;;;;;5044003;28;20150;-67
2021/08/10 11:01:52;;;;;;;2.35;1.50;;;;;;;;;;5039231;28;20540;-67
2021/08/10 11:04:21;;;;;;;3.20;1.70;;;;;;;;;;5035171;28;20118;-67
2021/08/10 11:06:50;;;;;;;3.40;1.75;;;;;;;;;;5029863;28;20060;-67
2021/08/10 11:09:36;;;;;;;3.47;1.70;;;;;;;;;;5049257;28;20045;-67
2021/08/10 11:12:27;;;;;;;3.72;1.60;;;;;;;;;;5039613;28;20046;-67
2021/08/10 11:14:56;;;;;;;2.38;1.42;;;;;;;;;;5041733;28;20550;-67
2021/08/10 11:17:24;;;;;;;4.13;2.10;;;;;;;;;;5045774;28;20076;-67
2021/08/10 11:19:53;;;;;;;9.05;1.77;;;;;;;;;;5045806;28;20137;-67
2021/08/10 11:22:22;;;;;;;2.80;1.83;;;;;;;;;;5038646;28;20282;-67
2021/08/10 11:24:52;;;;;;;3.08;1.73;;;;;;;;;;5045237;28;20542;-68
2021/08/10 11:27:35;;;;;;;3.17;1.80;;;;;;;;;;5052373;28;20045;-67
2021/08/10 11:30:05;;;;;;;3.45;1.55;;;;;;;;;;5036623;28;20116;-67
2021/08/10 11:32:37;;;;;;;2.40;1.70;;;;;;;;;;5017391;28;20524;-67
2021/08/10 11:35:33;;;;;;;3.20;1.52;;;;;;;;;;5029854;28;20087;-66
2021/08/10 11:38:05;;;;;;;2.97;1.73;;;;;;;;;;4988137;28;20100;-67
2021/08/10 11:40:37;;;;;;;2.72;1.63;;;;;;;;;;5020954;28;20049;-67
2021/08/10 11:43:07;;;;;;;4.40;1.92;;;;;;;;;;5024807;28;20052;-67
2021/08/10 11:45:37;;;;;;;3.42;1.58;;;;;;;;;;5018848;28;20041;-67
2021/08/10 11:48:05;;;;;;;2.97;1.38;;;;;;;;;;5041373;28;20041;-67
2021/08/10 11:50:34;;;;;;;2.63;1.75;;;;;;;;;;5033813;28;20433;-66
2021/08/10 11:53:03;;;;;;;2.97;1.50;;;;;;;;;;5042107;28;20064;-67
2021/08/10 11:55:32;;;;;;;5.38;1.70;;;;;;;;;;5033307;28;20073;-67
2021/08/10 11:58:02;;;;;;;2.67;1.55;;;;;;;;;;5048750;28;20049;-67
2021/08/10 12:00:33;;;;;;;2.90;1.88;;;;;;;;;;5049321;28;20129;-67
2021/08/10 12:03:01;;;;;;;4.28;1.63;;;;;;;;;;5049356;28;20052;-67
2021/08/10 12:05:30;;;;;;;2.60;1.65;;;;;;;;;;5010255;28;20077;-67
2021/08/10 12:07:59;;;;;;;3.35;1.52;;;;;;;;;;4997564;28;20054;-67
2021/08/10 12:10:29;;;;;;;3.10;1.60;;;;;;;;;;4991016;28;20129;-68
2021/08/10 12:13:02;;;;;;;2.40;1.70;;;;;;;;;;4999442;28;20468;-67
2021/08/10 12:15:36;;;;;;;4.60;1.55;;;;;;;;;;5001182;28;20081;-67
2021/08/10 12:18:05;;;;;;;2.60;1.73;;;;;;;;;;5005469;28;20049;-67
2021/08/10 12:20:34;;;;;;;3.17;1.48;;;;;;;;;;5000560;28;20136;-67
2021/08/10 12:23:04;;;;;;;3.13;1.60;;;;;;;;;;5005528;28;20058;-67
2021/08/10 12:25:32;;;;;;;2.83;1.40;;;;;;;;;;5016067;28;20077;-67
2021/08/10 12:28:01;;;;;;;2.65;1.55;;;;;;;;;;5029466;28;20492;-67
2021/08/10 12:30:32;;;;;;;3.53;1.70;;;;;;;;;;5025063;28;20053;-67
2021/08/10 12:33:16;;;;;;;2.65;1.40;;;;;;;;;;5030691;28;20045;-67
2021/08/10 12:35:57;;;;;;;2.42;1.60;;;;;;;;;;5026727;28;20048;-67
2021/08/10 12:38:26;;;;;;;5.40;1.85;;;;;;;;;;5023973;28;20132;-67
2021/08/10 12:40:55;;;;;;;3.42;1.80;;;;;;;;;;5027288;28;20564;-67
2021/08/10 12:43:24;;;;;;;2.65;1.42;;;;;;;;;;5010425;28;20081;-67
2021/08/10 12:45:53;;;;;;;2.75;1.80;;;;;;;;;;5025906;28;20153;-67
2021/08/10 12:48:27;;;;;;;4.20;1.75;;;;;;;;;;5026980;28;20049;-67
2021/08/10 12:50:56;;;;;;;3.83;1.85;;;;;;;;;;5018968;28;20053;-67
2021/08/10 12:53:29;;;;;;;3.00;1.75;;;;;;;;;;5008663;28;20437;-67
2021/08/10 12:56:00;;;;;;;1.90;1.40;;;;;;;;;;5018115;28;20476;-67
2021/08/10 12:58:28;;;;;;;2.95;1.80;;;;;;;;;;5025364;28;20169;-67
2021/08/10 13:00:57;;;;;;;2.67;1.70;;;;;;;;;;5021381;28;20152;-67
2021/08/10 13:03:27;;;;;;;3.83;1.85;;;;;;;;;;5010257;28;20055;-67
2021/08/10 13:05:58;;;;;;;2.88;1.60;;;;;;;;;;5052446;28;20083;-67
2021/08/10 13:08:27;;;;;;;2.33;1.48;;;;;;;;;;5035586;28;20060;-67
2021/08/10 13:10:57;;;;;;;6.00;1.70;;;;;;;;;;5069069;28;20496;-68
2021/08/10 13:13:27;;;;;;;3.40;1.75;;;;;;;;;;5049029;28;20049;-68
2021/08/10 13:15:56;;;;;;;6.32;1.80;;;;;;;;;;5046598;28;20040;-68
2021/08/10 13:18:27;;;;;;;3.03;1.58;;;;;;;;;;5036234;28;20045;-68
2021/08/10 13:20:57;;;;;;;3.10;1.67;;;;;;;;;;5056589;28;20040;-68
2021/08/10 13:23:26;;;;;;;5.63;1.52;;;;;;;;;;5056493;28;20496;-68
2021/08/10 13:25:56;;;;;;;5.60;1.90;;;;;;;;;;5065268;28;20052;-68
2021/08/10 13:28:24;;;;;;;4.28;1.90;;;;;;;;;;5066600;28;20124;-68
2021/08/10 13:31:08;;;;;;;3.42;1.50;;;;;;;;;;5068280;28;20051;-68
2021/08/10 13:33:50;;;;;;;4.72;1.85;;;;;;;;;;5052705;28;20136;-68
2021/08/10 13:36:18;;;;;;;3.25;1.88;;;;;;;;;;5045389;28;20053;-69
2021/08/10 13:38:47;;;;;;;3.13;1.85;;;;;;;;;;5050771;28;20114;-68
2021/08/10 13:41:15;;;;;;;2.67;1.60;;;;;;;;;;5047331;28;20045;-68
2021/08/10 13:43:44;;;;;;;4.70;1.63;;;;;;;;;;5051266;28;20049;-69
2021/08/10 13:46:16;;;;;;;3.28;1.85;;;;;;;;;;5052751;28;20473;-68
2021/08/10 13:48:45;;;;;;;5.28;2.03;;;;;;;;;;5042355;28;20865;-69
2021/08/10 13:51:15;;;;;;;6.47;1.75;;;;;;;;;;5049384;28;20106;-68
2021/08/10 13:53:43;;;;;;;2.72;1.48;;;;;;;;;;5040257;28;20102;-68
2021/08/10 13:56:11;;;;;;;4.38;1.83;;;;;;;;;;5038712;28;20056;-68
2021/08/10 13:58:40;;;;;;;3.03;1.60;;;;;;;;;;5044869;28;20056;-68
2021/08/10 14:01:14;;;;;;;4.75;1.73;;;;;;;;;;5051650;28;20140;-67
2021/08/10 14:03:43;;;;;;;4.20;1.67;;;;;;;;;;5042544;28;20057;-68
2021/08/10 14:06:12;;;;;;;4.47;1.83;;;;;;;;;;5041729;28;20107;-68
2021/08/10 14:08:42;;;;;;;3.03;1.83;;;;;;;;;;5039982;28;20105;-68
2021/08/10 14:11:11;;;;;;;3.53;1.88;;;;;;;;;;5045020;28;20057;-68
2021/08/10 14:13:39;;;;;;;2.83;1.65;;;;;;;;;;5050715;28;20060;-68
2021/08/10 14:16:08;;;;;;;4.20;2.17;;;;;;;;;;5033183;28;20115;-68
2021/08/10 14:18:37;;;;;;;2.55;1.75;;;;;;;;;;5057833;28;20623;-68
2021/08/10 14:21:05;;;;;;;3.70;1.90;;;;;;;;;;5055436;28;20081;-69
2021/08/10 14:23:34;;;;;;;3.03;1.67;;;;;;;;;;5054996;28;20056;-68
2021/08/10 14:26:05;;;;;;;5.50;1.60;;;;;;;;;;5055294;28;20046;-68
2021/08/10 14:28:34;;;;;;;2.92;1.50;;;;;;;;;;5072311;28;20135;-69
2021/08/10 14:31:03;;;;;;;2.65;1.88;;;;;;;;;;5056577;28;20045;-69
2021/08/10 14:33:31;;;;;;;2.45;1.80;;;;;;;;;;5051981;28;20047;-69
2021/08/10 14:36:00;;;;;;;2.80;1.58;;;;;;;;;;5043142;28;20164;-68
2021/08/10 14:38:28;;;;;;;2.47;1.90;;;;;;;;;;5070638;28;20464;-68
2021/08/10 14:40:56;;;;;;;3.13;1.60;;;;;;;;;;5064787;28;20412;-68
2021/08/10 14:43:26;;;;;;;3.58;1.67;;;;;;;;;;5053763;28;20096;-68
2021/08/10 14:45:55;;;;;;;3.28;1.42;;;;;;;;;;5065566;28;20059;-68
2021/08/10 14:48:24;;;;;;;5.22;1.75;;;;;;;;;;5041981;28;20104;-69
2021/08/10 14:50:52;;;;;;;4.05;1.80;;;;;;;;;;5061045;28;20477;-68
2021/08/10 14:53:21;;;;;;;4.50;1.65;;;;;;;;;;5051886;28;20069;-69
2021/08/10 14:55:49;;;;;;;2.97;1.80;;;;;;;;;;5049309;28;20044;-69
2021/08/10 14:58:17;;;;;;;7.28;2.00;;;;;;;;;;5054836;28;20103;-68